This is the latest recevied weather packets stored in our database for station/object VK3BYD-3. If no packets are shown the sender has not sent any weather packets the latest 10 day(s).
| Time | Temp. | Humidity | Pressure | Rain* | Wind** | Luminosity | Snow |
|---|---|---|---|---|---|---|---|
| 1777630409 | 15.56° C | 77% | 1023.1 hPa | 0 mm | - | - | - |
| 1777629507 | 15.56° C | 78% | 1023.3 hPa | 0 mm | - | - | - |
| 1777628603 | 15.56° C | 76% | 1023.3 hPa | 0 mm | - | - | - |
| 1777627701 | 15.56° C | 76% | 1023.1 hPa | 0 mm | - | - | - |
| 1777626800 | 15.56° C | 77% | 1023.2 hPa | 0 mm | - | - | - |
| 1777625899 | 15.56° C | 75% | 1023.1 hPa | 0 mm | - | - | - |
| 1777624998 | 16.11° C | 74% | 1023.2 hPa | 0 mm | - | - | - |
| 1777624094 | 16.67° C | 73% | 1023 hPa | 0 mm | - | - | - |
| 1777623193 | 17.22° C | 72% | 1023 hPa | 0 mm | - | - | - |
| 1777622292 | 17.78° C | 69% | 1023 hPa | 0 mm | - | - | - |
| 1777621393 | 18.33° C | 68% | 1022.9 hPa | 0 mm | - | - | - |
| 1777620492 | 19.44° C | 62% | 1023 hPa | 0 mm | - | - | - |
| 1777619593 | 21.11° C | 57% | 1023 hPa | 0 mm | - | - | - |
| 1777618692 | 23.33° C | 54% | 1023 hPa | 0 mm | - | - | - |
| 1777617790 | 24.44° C | 49% | 1023.2 hPa | 0 mm | - | - | - |
| 1777616889 | 26.11° C | 47% | 1023.1 hPa | 0 mm | - | - | - |
| 1777615987 | 26.67° C | 45% | 1023.3 hPa | 0 mm | - | - | - |
| 1777615085 | 27.22° C | 44% | 1023.3 hPa | 0 mm | - | - | - |
| 1777614185 | 27.78° C | 43% | 1023.3 hPa | 0 mm | - | - | - |
| 1777613284 | 27.78° C | 44% | 1023.3 hPa | 0 mm | - | - | - |
| 1777612383 | 27.78° C | 45% | 1023.4 hPa | 0 mm | - | - | - |
| 1777611482 | 27.22° C | 44% | 1023.6 hPa | 0 mm | - | - | - |
| 1777610583 | 26.67° C | 45% | 1023.7 hPa | 0 mm | - | - | - |
| 1777609683 | 27.22° C | 45% | 1023.8 hPa | 0 mm | - | - | - |
| 1777608783 | 27.78° C | 45% | 1023.9 hPa | 0 mm | - | - | - |
* Rain latest hour (hover to see other rain measurements)
** Current wind speed in m/s (hover to see current wind gust speed)